Time;durP1;ratioP1;P1;durP2;ratioP2;P2;SDS_P1;SDS_P2;PMS_P1;PMS_P2;Temp;Humidity;BMP_temperature;BMP_pressure;BME280_temperature;BME280_humidity;BME280_pressure;Samples;Min_cycle;Max_cycle;Signal;HPM_P1;HPM_P2
2022/03/25 00:01:36;;;;;;;46.40;27.98;;;8.40;76.60;;;;;;5073593;28;20024;-63
2022/03/25 00:04:02;;;;;;;40.25;26.45;;;8.40;76.80;;;;;;5073453;28;20036;-64
2022/03/25 00:06:27;;;;;;;40.67;26.98;;;8.30;77.20;;;;;;5072386;28;20032;-63
2022/03/25 00:08:53;;;;;;;44.38;29.33;;;8.30;77.30;;;;;;5073236;28;20048;-61
2022/03/25 00:11:19;;;;;;;49.10;28.40;;;8.30;77.40;;;;;;5073426;28;20021;-63
2022/03/25 00:13:44;;;;;;;49.88;30.60;;;8.20;77.30;;;;;;5074682;28;20029;-63
2022/03/25 00:16:10;;;;;;;45.22;29.05;;;8.10;77.80;;;;;;5088487;28;20008;-61
2022/03/25 00:18:35;;;;;;;50.92;28.45;;;8.10;78.40;;;;;;5091814;28;20028;-62
2022/03/25 00:21:01;;;;;;;51.90;27.88;;;8.10;78.60;;;;;;5092300;28;20388;-63
2022/03/25 00:23:27;;;;;;;47.97;27.30;;;8.10;78.60;;;;;;5092812;28;20024;-63
2022/03/25 00:25:53;;;;;;;45.28;29.50;;;8.10;79.20;;;;;;5093265;28;20039;-63
2022/03/25 00:28:20;;;;;;;45.17;27.40;;;8.10;79.90;;;;;;5093421;28;20039;-63
2022/03/25 00:30:46;;;;;;;47.85;29.63;;;8.00;80.10;;;;;;5093623;28;20020;-63
2022/03/25 00:33:14;;;;;;;44.10;26.60;;;8.00;80.20;;;;;;4734605;28;10000090;-63
2022/03/25 00:35:40;;;;;;;46.67;27.33;;;8.00;80.50;;;;;;5071921;28;20631;-63
2022/03/25 00:38:06;;;;;;;45.78;26.70;;;8.00;81.30;;;;;;5053971;28;20786;-63
2022/03/25 00:40:31;;;;;;;49.97;29.27;;;7.90;81.10;;;;;;5073666;28;20031;-64
2022/03/25 00:43:00;;;;;;;45.70;29.52;;;7.90;81.40;;;;;;5077006;28;20036;-64
2022/03/25 00:45:29;;;;;;;46.13;27.40;;;7.90;81.90;;;;;;5056038;28;20035;-64
2022/03/25 00:47:55;;;;;;;44.58;27.90;;;7.90;82.30;;;;;;5073656;28;20028;-64
2022/03/25 00:50:21;;;;;;;44.10;27.90;;;7.80;82.40;;;;;;5073506;28;20504;-62
2022/03/25 00:52:47;;;;;;;45.63;28.13;;;7.80;82.90;;;;;;5074375;28;20177;-62
2022/03/25 00:55:13;;;;;;;43.75;26.33;;;7.80;83.50;;;;;;5056260;28;20078;-64
2022/03/25 00:57:38;;;;;;;52.17;28.85;;;7.70;83.40;;;;;;5073735;28;20037;-64
2022/03/25 01:00:05;;;;;;;48.33;29.30;;;7.70;83.40;;;;;;5073096;28;20068;-62
2022/03/25 01:02:31;;;;;;;47.08;30.13;;;7.70;84.00;;;;;;5058201;28;20070;-64
2022/03/25 01:04:56;;;;;;;50.45;30.13;;;7.60;84.30;;;;;;5074762;28;20032;-63
2022/03/25 01:07:22;;;;;;;43.97;27.90;;;7.60;84.50;;;;;;5073283;28;20025;-64
2022/03/25 01:09:47;;;;;;;50.80;29.13;;;7.60;84.90;;;;;;5072299;28;20480;-64
2022/03/25 01:12:13;;;;;;;50.22;29.60;;;7.50;85.10;;;;;;5073235;28;20024;-64
2022/03/25 01:14:39;;;;;;;49.53;29.23;;;7.50;86.00;;;;;;5073174;28;20450;-63
2022/03/25 01:17:05;;;;;;;49.13;29.70;;;7.50;86.50;;;;;;5073073;28;20032;-63
2022/03/25 01:19:31;;;;;;;51.80;30.15;;;7.50;87.00;;;;;;5054965;28;20138;-62
2022/03/25 01:21:56;;;;;;;45.45;29.00;;;7.40;87.50;;;;;;5072877;28;20063;-63
2022/03/25 01:24:23;;;;;;;52.55;30.23;;;7.40;88.10;;;;;;5072619;28;20056;-64
2022/03/25 01:26:49;;;;;;;51.50;29.60;;;7.50;89.30;;;;;;5072977;28;20052;-63
2022/03/25 01:29:15;;;;;;;52.80;30.17;;;7.40;89.80;;;;;;5054933;28;20028;-61
2022/03/25 01:31:41;;;;;;;48.13;29.20;;;7.40;90.30;;;;;;5073088;28;20025;-63
2022/03/25 01:34:07;;;;;;;51.92;30.52;;;7.40;90.50;;;;;;5055162;28;20115;-63
2022/03/25 01:36:33;;;;;;;50.17;28.52;;;7.40;90.60;;;;;;5073448;28;20075;-62
2022/03/25 01:38:59;;;;;;;46.15;28.33;;;7.40;90.50;;;;;;5054995;28;20078;-64
2022/03/25 01:41:25;;;;;;;51.22;29.90;;;7.30;90.60;;;;;;5072950;28;20040;-61
2022/03/25 01:43:57;;;;;;;50.38;29.63;;;7.30;90.80;;;;;;5072868;28;20028;-64
2022/03/25 01:46:23;;;;;;;46.22;29.55;;;7.20;91.20;;;;;;5054906;28;20029;-64
2022/03/25 01:48:50;;;;;;;46.90;29.35;;;7.10;91.50;;;;;;5054442;28;20111;-63
2022/03/25 01:51:32;;;;;;;48.92;30.33;;;7.00;91.90;;;;;;5072505;28;20070;-60
2022/03/25 01:54:10;;;;;;;46.78;30.05;;;6.90;92.40;;;;;;5054752;28;20507;-63
2022/03/25 01:56:36;;;;;;;52.43;31.50;;;6.80;92.90;;;;;;5073087;28;20040;-62
2022/03/25 01:59:02;;;;;;;47.90;29.17;;;6.90;93.20;;;;;;5072787;28;20301;-63
2022/03/25 02:01:27;;;;;;;54.60;31.73;;;6.80;93.50;;;;;;5053972;28;20099;-64
2022/03/25 02:03:53;;;;;;;49.25;29.88;;;6.80;93.90;;;;;;5072662;28;20055;-62
2022/03/25 02:06:19;;;;;;;46.65;30.30;;;6.80;94.40;;;;;;5072566;28;20024;-60
2022/03/25 02:08:45;;;;;;;52.22;30.10;;;6.70;94.70;;;;;;5072596;28;20035;-60
2022/03/25 02:11:11;;;;;;;49.83;30.13;;;6.70;94.80;;;;;;5072663;28;20021;-63
2022/03/25 02:13:37;;;;;;;48.75;31.05;;;6.60;95.20;;;;;;5072555;28;20063;-63
2022/03/25 02:16:02;;;;;;;50.85;29.50;;;6.60;95.60;;;;;;5072462;28;20492;-64
2022/03/25 02:18:28;;;;;;;47.78;29.10;;;6.50;96.20;;;;;;5072529;28;20024;-64
2022/03/25 02:20:54;;;;;;;47.67;30.15;;;6.50;96.40;;;;;;5072340;28;20020;-64
2022/03/25 02:23:21;;;;;;;53.05;30.13;;;6.50;96.90;;;;;;5072317;28;20033;-63
2022/03/25 02:25:51;;;;;;;47.95;29.92;;;6.50;97.10;;;;;;5072498;28;20033;-63
2022/03/25 02:28:17;;;;;;;49.08;30.08;;;6.40;97.50;;;;;;5054382;28;20094;-64
2022/03/25 02:30:43;;;;;;;51.10;30.10;;;6.40;97.80;;;;;;5056700;28;20472;-63
2022/03/25 02:33:09;;;;;;;49.33;29.83;;;6.40;98.30;;;;;;5076196;28;20485;-63
2022/03/25 02:35:45;;;;;;;49.67;31.05;;;6.30;98.60;;;;;;5076389;28;20043;-62
2022/03/25 02:38:13;;;;;;;49.80;28.80;;;6.30;99.40;;;;;;5076336;28;20099;-63
2022/03/25 02:40:40;;;;;;;52.67;32.30;;;6.30;99.90;;;;;;5076166;28;20027;-64
2022/03/25 02:43:06;;;;;;;52.05;31.00;;;6.30;99.90;;;;;;5076059;28;20082;-64
2022/03/25 02:45:32;;;;;;;49.75;32.00;;;6.30;99.90;;;;;;5076097;28;20029;-63
2022/03/25 02:47:59;;;;;;;61.10;33.03;;;6.20;99.90;;;;;;5057375;28;20031;-64
2022/03/25 02:50:25;;;;;;;55.30;33.60;;;6.20;99.90;;;;;;5075772;28;20043;-64
2022/03/25 02:52:51;;;;;;;56.08;33.53;;;6.20;99.90;;;;;;5057859;28;20477;-63
2022/03/25 02:55:17;;;;;;;56.58;35.00;;;6.20;99.90;;;;;;5076052;28;20028;-63
2022/03/25 02:57:42;;;;;;;55.75;34.78;;;6.20;99.90;;;;;;5075871;28;20031;-64
2022/03/25 03:00:10;;;;;;;61.72;34.05;;;6.30;99.90;;;;;;5075666;28;20114;-64
2022/03/25 03:02:37;;;;;;;60.65;34.72;;;6.20;99.90;;;;;;5058011;28;20025;-63
2022/03/25 03:05:06;;;;;;;62.45;37.10;;;6.20;99.90;;;;;;5075477;28;20020;-64
2022/03/25 03:07:32;;;;;;;69.47;39.00;;;6.20;99.90;;;;;;5075683;28;20020;-64
2022/03/25 03:09:58;;;;;;;83.70;45.45;;;6.30;99.90;;;;;;5075714;28;20039;-64
2022/03/25 03:12:25;;;;;;;68.57;40.80;;;6.30;99.90;;;;;;5075568;28;20481;-63
2022/03/25 03:14:51;;;;;;;78.45;41.60;;;6.40;99.90;;;;;;5057538;28;20029;-65
2022/03/25 03:17:16;;;;;;;81.32;45.30;;;6.40;99.90;;;;;;5075691;28;20032;-63
2022/03/25 03:19:42;;;;;;;80.80;43.97;;;6.30;99.90;;;;;;5057101;28;20025;-63
2022/03/25 03:22:08;;;;;;;75.47;42.10;;;6.30;99.90;;;;;;5075214;28;20046;-64
2022/03/25 03:24:33;;;;;;;77.15;43.30;;;6.30;99.90;;;;;;5075406;28;20036;-61
2022/03/25 03:26:59;;;;;;;86.35;45.45;;;6.30;99.90;;;;;;5076880;28;20086;-63
2022/03/25 03:29:25;;;;;;;83.90;46.00;;;6.20;99.90;;;;;;5076712;28;20021;-63
2022/03/25 03:31:51;;;;;;;84.40;45.38;;;6.20;99.90;;;;;;5076626;28;20107;-61
2022/03/25 03:34:16;;;;;;;80.07;45.65;;;6.20;99.90;;;;;;5060520;28;20028;-62
2022/03/25 03:36:42;;;;;;;79.93;45.75;;;6.10;99.90;;;;;;5077771;28;20025;-63
2022/03/25 03:39:08;;;;;;;79.05;43.85;;;6.10;99.90;;;;;;5075544;28;20384;-62
2022/03/25 03:41:34;;;;;;;83.88;44.17;;;6.10;99.90;;;;;;5075163;28;20024;-62
2022/03/25 03:43:59;;;;;;;83.55;43.78;;;6.00;99.90;;;;;;5075031;28;20028;-63
2022/03/25 03:46:25;;;;;;;79.03;45.70;;;6.10;99.90;;;;;;5056757;28;20701;-63
2022/03/25 03:48:50;;;;;;;79.25;45.10;;;6.00;99.90;;;;;;5074747;28;20028;-64
2022/03/25 03:51:16;;;;;;;82.70;46.20;;;6.00;99.90;;;;;;5074636;28;20016;-62
2022/03/25 03:53:41;;;;;;;84.45;46.25;;;6.00;99.90;;;;;;5056865;28;20028;-63
2022/03/25 03:56:07;;;;;;;81.20;46.03;;;6.00;99.90;;;;;;5074784;28;20465;-63
2022/03/25 03:58:33;;;;;;;85.07;45.70;;;6.00;99.90;;;;;;5074748;28;20029;-62
2022/03/25 04:00:58;;;;;;;88.32;49.72;;;6.00;99.90;;;;;;5074554;28;20032;-63
2022/03/25 04:03:25;;;;;;;82.20;43.78;;;5.90;99.90;;;;;;5056470;28;20039;-61
2022/03/25 04:05:50;;;;;;;87.78;47.00;;;5.90;99.90;;;;;;5074531;28;20084;-64
2022/03/25 04:08:16;;;;;;;85.90;47.65;;;5.90;99.90;;;;;;5074463;28;20135;-63
2022/03/25 04:10:41;;;;;;;88.07;46.58;;;5.90;99.90;;;;;;5055987;28;20154;-64
2022/03/25 04:13:07;;;;;;;93.18;48.38;;;5.80;99.90;;;;;;5074181;28;20024;-63
2022/03/25 04:15:34;;;;;;;88.18;47.65;;;5.90;99.90;;;;;;5074453;28;20094;-63
2022/03/25 04:18:00;;;;;;;89.63;46.10;;;5.80;99.90;;;;;;5074122;28;20499;-63
2022/03/25 04:20:26;;;;;;;84.45;45.17;;;5.80;99.90;;;;;;5074013;28;20399;-63
2022/03/25 04:22:52;;;;;;;87.47;47.50;;;5.80;99.90;;;;;;5073591;28;20107;-63
2022/03/25 04:25:18;;;;;;;91.35;47.63;;;5.80;99.90;;;;;;5073929;28;20025;-62
2022/03/25 04:27:57;;;;;;;82.45;44.88;;;5.80;99.90;;;;;;5074626;28;20373;-64
2022/03/25 04:30:31;;;;;;;86.40;45.60;;;5.80;99.90;;;;;;5073716;28;20033;-63
2022/03/25 04:32:57;;;;;;;83.97;47.00;;;5.90;99.90;;;;;;5073813;28;20067;-64
2022/03/25 04:35:27;;;;;;;97.32;50.22;;;5.80;99.90;;;;;;5074093;28;20107;-62
2022/03/25 04:37:54;;;;;;;94.15;50.00;;;5.80;99.90;;;;;;5073965;28;20107;-62
2022/03/25 04:40:21;;;;;;;90.10;47.67;;;5.80;99.90;;;;;;5073500;28;20030;-62
2022/03/25 04:42:48;;;;;;;90.65;49.90;;;5.80;99.90;;;;;;5073877;28;20024;-62
2022/03/25 04:45:15;;;;;;;90.40;51.70;;;5.70;99.90;;;;;;5073677;28;20024;-64
2022/03/25 04:47:42;;;;;;;86.22;46.25;;;5.70;99.90;;;;;;5074123;28;20020;-63
2022/03/25 04:50:08;;;;;;;87.78;46.90;;;5.70;99.90;;;;;;5073507;28;20063;-64
2022/03/25 04:52:34;;;;;;;86.63;51.15;;;5.70;99.90;;;;;;5072781;28;20028;-63
2022/03/25 04:55:00;;;;;;;93.75;47.00;;;5.70;99.90;;;;;;5073451;28;20025;-63
2022/03/25 04:57:25;;;;;;;90.78;47.40;;;5.70;99.90;;;;;;5055584;28;20017;-63
2022/03/25 04:59:51;;;;;;;89.07;49.08;;;5.70;99.90;;;;;;5073633;28;20055;-64
2022/03/25 05:02:16;;;;;;;92.18;51.65;;;5.70;99.90;;;;;;5072847;28;20107;-63
2022/03/25 05:04:42;;;;;;;86.85;51.70;;;5.60;99.90;;;;;;5055300;28;20028;-63
2022/03/25 05:07:13;;;;;;;88.78;49.17;;;5.70;99.90;;;;;;5072979;28;20046;-64
2022/03/25 05:09:39;;;;;;;84.88;48.58;;;5.70;99.90;;;;;;5073314;28;20089;-63
2022/03/25 05:12:05;;;;;;;92.68;52.00;;;5.60;99.90;;;;;;5073057;28;20024;-63
2022/03/25 05:14:30;;;;;;;97.30;50.33;;;5.70;99.90;;;;;;5072822;28;20108;-63
2022/03/25 05:16:56;;;;;;;92.40;49.28;;;5.80;99.90;;;;;;5073545;28;20017;-62
2022/03/25 05:19:22;;;;;;;91.38;49.90;;;5.70;99.90;;;;;;5073199;28;20037;-63
2022/03/25 05:21:49;;;;;;;99.47;52.08;;;5.70;99.90;;;;;;5073307;28;20028;-65
2022/03/25 05:24:15;;;;;;;90.22;48.83;;;5.80;99.90;;;;;;5073017;28;20025;-61
2022/03/25 05:26:41;;;;;;;91.10;48.65;;;5.80;99.90;;;;;;5072611;28;20077;-63
2022/03/25 05:29:06;;;;;;;94.45;50.50;;;5.80;99.90;;;;;;5072444;28;20111;-64
2022/03/25 05:31:32;;;;;;;99.80;51.03;;;5.80;99.90;;;;;;5072764;28;20017;-62
2022/03/25 05:33:57;;;;;;;87.05;46.72;;;5.80;99.90;;;;;;5072887;28;20265;-62
2022/03/25 05:36:23;;;;;;;93.70;49.90;;;5.80;99.90;;;;;;5072708;28;20492;-61
2022/03/25 05:38:51;;;;;;;82.60;45.45;;;5.80;99.90;;;;;;5072161;28;20032;-64
2022/03/25 05:41:17;;;;;;;83.90;48.45;;;5.80;99.90;;;;;;5072276;28;20032;-64
2022/03/25 05:43:43;;;;;;;86.97;48.10;;;5.90;99.90;;;;;;5072449;28;20036;-65
2022/03/25 05:46:08;;;;;;;88.68;48.75;;;5.90;99.90;;;;;;5072216;28;20025;-64
2022/03/25 05:48:34;;;;;;;91.20;45.95;;;5.90;99.90;;;;;;5072617;28;20029;-64
2022/03/25 05:51:00;;;;;;;82.15;47.78;;;6.10;99.90;;;;;;5072473;28;20358;-63
2022/03/25 05:53:26;;;;;;;94.43;48.47;;;6.10;99.90;;;;;;5072222;28;20078;-63
2022/03/25 05:55:52;;;;;;;89.50;47.65;;;6.20;99.90;;;;;;5072236;28;20031;-63
2022/03/25 05:58:18;;;;;;;90.75;49.00;;;6.20;99.90;;;;;;5072747;28;20446;-63
2022/03/25 06:00:43;;;;;;;87.28;49.95;;;6.20;99.90;;;;;;5072680;28;20540;-63
2022/03/25 06:03:10;;;;;;;88.95;47.67;;;6.20;99.90;;;;;;5054510;28;20497;-62
2022/03/25 06:05:35;;;;;;;87.57;48.95;;;6.20;99.90;;;;;;5072096;28;20077;-64
2022/03/25 06:08:01;;;;;;;87.40;49.30;;;6.30;99.90;;;;;;5072227;28;20063;-63
2022/03/25 06:10:27;;;;;;;81.47;47.55;;;6.30;99.90;;;;;;5072072;28;20424;-61
2022/03/25 06:12:52;;;;;;;90.97;47.42;;;6.40;99.90;;;;;;5054157;28;20385;-66
2022/03/25 06:15:18;;;;;;;89.28;49.88;;;6.40;99.90;;;;;;5072000;28;20060;-63
2022/03/25 06:17:49;;;;;;;91.88;48.25;;;6.50;99.90;;;;;;5072578;28;20104;-64
2022/03/25 06:20:18;;;;;;;91.13;50.58;;;6.60;99.90;;;;;;5071957;28;20032;-64
2022/03/25 06:22:44;;;;;;;95.03;49.45;;;6.70;99.90;;;;;;5071991;28;20048;-63
2022/03/25 06:25:12;;;;;;;88.00;48.83;;;6.80;99.90;;;;;;5072198;28;20155;-64
2022/03/25 06:27:46;;;;;;;83.68;48.05;;;6.90;99.90;;;;;;5072251;28;20029;-63
2022/03/25 06:30:12;;;;;;;93.53;47.25;;;6.90;99.90;;;;;;5071688;28;20024;-64
2022/03/25 06:32:38;;;;;;;89.95;49.50;;;7.00;99.90;;;;;;5072225;28;20037;-62
2022/03/25 06:35:04;;;;;;;89.40;50.70;;;7.10;99.90;;;;;;5071744;28;20024;-62
2022/03/25 06:37:29;;;;;;;87.25;50.80;;;7.20;99.90;;;;;;5053939;28;20024;-64
2022/03/25 06:39:55;;;;;;;88.57;49.08;;;7.30;99.90;;;;;;5072152;28;20503;-62
2022/03/25 06:42:21;;;;;;;89.13;53.22;;;7.40;99.90;;;;;;5054089;28;20111;-62
2022/03/25 06:44:46;;;;;;;93.68;51.58;;;7.50;99.90;;;;;;5054852;28;20067;-62
2022/03/25 06:47:12;;;;;;;89.82;48.42;;;7.70;99.90;;;;;;5073372;28;20082;-63
2022/03/25 06:49:38;;;;;;;86.65;48.33;;;7.90;99.90;;;;;;5071978;28;20028;-64
2022/03/25 06:52:07;;;;;;;89.10;49.90;;;8.00;99.90;;;;;;5098991;23;20039;-66
2022/03/25 06:54:33;;;;;;;90.65;51.47;;;8.10;99.90;;;;;;5129585;28;20053;-66
2022/03/25 06:56:59;;;;;;;78.75;48.22;;;8.10;99.90;;;;;;5130069;28;20023;-64
2022/03/25 06:59:25;;;;;;;81.15;48.55;;;8.20;99.90;;;;;;5129607;28;20072;-65
2022/03/25 07:01:51;;;;;;;86.35;46.00;;;8.30;99.90;;;;;;5130938;28;20038;-64
2022/03/25 07:04:16;;;;;;;80.93;49.20;;;8.40;99.90;;;;;;5130120;28;20024;-66
2022/03/25 07:06:47;;;;;;;87.95;47.28;;;8.40;99.90;;;;;;5129893;28;20023;-65
2022/03/25 07:09:13;;;;;;;71.78;44.65;;;8.60;99.90;;;;;;5129323;28;20071;-63
2022/03/25 07:11:39;;;;;;;82.28;46.65;;;8.60;99.90;;;;;;5131222;28;20015;-66
2022/03/25 07:14:04;;;;;;;83.57;46.70;;;8.70;99.90;;;;;;5130862;28;20019;-66
2022/03/25 07:16:30;;;;;;;84.40;48.45;;;8.70;99.90;;;;;;5133352;27;20068;-65
2022/03/25 07:18:56;;;;;;;75.72;44.47;;;8.80;99.90;;;;;;5134638;27;20019;-66
2022/03/25 07:21:22;;;;;;;75.50;44.58;;;8.80;99.90;;;;;;5134995;27;20370;-66
2022/03/25 07:23:47;;;;;;;77.70;44.65;;;8.80;99.90;;;;;;5134290;27;20027;-66
2022/03/25 07:26:13;;;;;;;79.35;46.05;;;8.90;99.90;;;;;;5134683;27;20054;-65
2022/03/25 07:28:38;;;;;;;73.82;42.58;;;9.00;99.90;;;;;;5134154;27;20536;-65
2022/03/25 07:31:05;;;;;;;78.60;44.70;;;9.10;99.90;;;;;;5134443;27;20019;-65
2022/03/25 07:33:30;;;;;;;72.25;41.58;;;9.20;99.90;;;;;;5134537;27;20042;-64
2022/03/25 07:35:56;;;;;;;69.35;40.35;;;9.20;99.90;;;;;;5134708;27;20479;-66
2022/03/25 07:38:22;;;;;;;71.45;41.83;;;9.30;99.90;;;;;;5132621;27;20045;-66
2022/03/25 07:40:48;;;;;;;70.63;40.45;;;9.40;99.90;;;;;;5134711;27;20076;-67
2022/03/25 07:43:13;;;;;;;70.38;42.45;;;9.40;99.90;;;;;;5134570;27;20407;-66
2022/03/25 07:45:39;;;;;;;68.63;41.97;;;9.50;99.90;;;;;;5134347;27;20467;-66
2022/03/25 07:48:05;;;;;;;75.70;43.10;;;9.50;99.90;;;;;;5134162;27;20034;-66
2022/03/25 07:50:31;;;;;;;70.97;44.22;;;9.60;99.90;;;;;;5133912;27;20015;-65
2022/03/25 07:52:57;;;;;;;68.20;40.42;;;9.70;99.90;;;;;;5133928;27;20034;-66
2022/03/25 07:55:23;;;;;;;71.22;41.25;;;9.70;99.90;;;;;;5134254;27;20095;-66
2022/03/25 07:57:49;;;;;;;63.95;39.95;;;9.80;99.90;;;;;;5134451;27;20027;-66
2022/03/25 08:00:16;;;;;;;71.05;40.45;;;9.90;99.90;;;;;;5132975;27;20058;-66
2022/03/25 08:02:44;;;;;;;72.93;41.55;;;10.00;99.90;;;;;;5134541;27;20031;-65
2022/03/25 08:05:11;;;;;;;66.75;39.63;;;10.10;99.90;;;;;;5134846;27;20027;-67
2022/03/25 08:07:48;;;;;;;69.68;41.30;;;10.30;99.90;;;;;;5134545;27;20034;-66
2022/03/25 08:10:16;;;;;;;66.30;40.05;;;10.40;99.90;;;;;;5134053;27;20068;-65
2022/03/25 08:12:42;;;;;;;78.32;42.83;;;10.50;99.90;;;;;;5134363;27;20023;-66
2022/03/25 08:15:08;;;;;;;64.85;38.67;;;10.60;99.90;;;;;;5133989;27;20027;-67
2022/03/25 08:17:55;;;;;;;73.43;40.97;;;10.70;99.90;;;;;;5134274;27;20042;-66
2022/03/25 08:20:29;;;;;;;74.00;39.08;;;10.70;99.90;;;;;;5133863;27;20016;-67
2022/03/25 08:22:59;;;;;;;60.25;37.08;;;10.90;99.90;;;;;;5133826;27;20019;-67
2022/03/25 08:28:10;;;;;;;60.38;34.30;;;11.10;99.90;;;;;;5132799;27;20034;-66
2022/03/25 08:30:36;;;;;;;57.83;35.55;;;11.20;99.90;;;;;;5133647;27;20027;-67
2022/03/25 08:33:03;;;;;;;63.00;37.40;;;11.30;99.90;;;;;;5132108;27;20023;-67
2022/03/25 08:35:30;;;;;;;55.00;35.22;;;11.50;99.90;;;;;;5133833;27;20540;-65
2022/03/25 08:37:57;;;;;;;59.25;35.53;;;11.60;99.90;;;;;;5133558;27;20072;-67
2022/03/25 08:40:25;;;;;;;55.22;34.80;;;11.70;99.80;;;;;;5133443;27;20539;-66
2022/03/25 08:42:51;;;;;;;61.55;37.80;;;11.80;99.30;;;;;;5133719;27;20050;-67
2022/03/25 08:45:17;;;;;;;61.55;38.17;;;11.90;99.20;;;;;;5133197;27;20479;-67
2022/03/25 08:47:44;;;;;;;56.25;33.15;;;12.00;98.90;;;;;;5133577;27;20034;-66
2022/03/25 08:50:12;;;;;;;57.40;33.60;;;12.00;98.20;;;;;;5132208;27;20020;-67
2022/03/25 08:52:42;;;;;;;51.55;33.28;;;12.20;97.10;;;;;;5133475;27;20033;-66
2022/03/25 08:55:12;;;;;;;50.53;32.35;;;12.30;97.10;;;;;;5133235;27;20103;-67
2022/03/25 08:57:41;;;;;;;52.17;35.60;;;12.30;95.90;;;;;;5133376;27;20019;-66
2022/03/25 09:00:10;;;;;;;53.90;32.85;;;12.50;95.50;;;;;;5132948;27;20030;-67
2022/03/25 09:02:37;;;;;;;55.42;34.38;;;12.60;94.20;;;;;;5133182;27;20015;-66
2022/03/25 09:05:04;;;;;;;52.10;31.95;;;12.70;93.40;;;;;;5133161;27;20035;-66
2022/03/25 09:07:31;;;;;;;55.40;33.05;;;12.80;93.30;;;;;;5124481;27;20534;-60
2022/03/25 09:09:57;;;;;;;51.65;32.90;;;13.00;92.70;;;;;;5116874;27;20052;-59
2022/03/25 09:12:23;;;;;;;57.60;36.20;;;13.00;92.40;;;;;;5130737;27;20019;-62
2022/03/25 09:14:49;;;;;;;56.85;35.28;;;13.20;92.80;;;;;;5129707;27;20028;-62
2022/03/25 09:17:15;;;;;;;51.08;33.92;;;13.30;92.20;;;;;;5110747;28;20479;-62
2022/03/25 09:19:42;;;;;;;54.38;33.10;;;13.40;92.30;;;;;;5112393;28;20080;-61
2022/03/25 09:22:08;;;;;;;48.58;31.17;;;13.50;90.70;;;;;;5115018;28;20019;-61
2022/03/25 09:24:34;;;;;;;45.53;29.00;;;13.70;90.50;;;;;;5126356;27;20082;-62
2022/03/25 09:26:59;;;;;;;42.13;27.40;;;13.90;88.90;;;;;;5132917;27;20498;-62
2022/03/25 09:29:25;;;;;;;38.58;26.73;;;14.00;86.90;;;;;;5132985;27;20030;-61
2022/03/25 09:31:51;;;;;;;46.58;30.92;;;14.10;86.30;;;;;;5131502;27;20025;-62
2022/03/25 09:37:01;;;;;;;44.78;25.95;;;14.20;84.70;;;;;;5132795;27;20038;-60
2022/03/25 09:39:27;;;;;;;42.00;24.17;;;14.20;81.90;;;;;;5132492;27;20523;-63
2022/03/25 09:41:53;;;;;;;40.10;25.27;;;14.30;79.80;;;;;;5117611;27;20023;-60
2022/03/25 09:44:19;;;;;;;43.50;26.10;;;14.30;78.90;;;;;;5112883;28;20030;-62
2022/03/25 09:46:45;;;;;;;42.83;25.13;;;14.40;78.30;;;;;;5112101;28;20050;-62
2022/03/25 09:49:12;;;;;;;46.65;27.83;;;14.50;77.80;;;;;;5111456;28;20034;-60
2022/03/25 09:51:40;;;;;;;39.55;26.55;;;14.50;77.90;;;;;;5111563;28;20344;-62
2022/03/25 09:54:08;;;;;;;;;;;14.60;78.30;;;;;;5111856;28;20085;-64
2022/03/25 09:56:34;;;;;;;42.65;26.55;;;14.80;78.70;;;;;;5111873;28;19952;-62
2022/03/25 09:59:01;;;;;;;39.95;25.55;;;15.00;77.50;;;;;;5111691;28;20077;-63
2022/03/25 10:01:26;;;;;;;40.30;25.80;;;15.30;76.70;;;;;;5112080;28;20035;-63
2022/03/25 10:03:52;;;;;;;39.85;26.15;;;15.40;75.80;;;;;;5111121;28;20028;-63
2022/03/25 10:06:18;;;;;;;39.83;27.42;;;15.60;75.20;;;;;;5111276;28;20053;-64
2022/03/25 10:08:45;;;;;;;39.03;25.02;;;15.60;74.00;;;;;;5110791;28;20676;-63
2022/03/25 10:11:32;;;;;;;39.60;25.33;;;15.70;75.10;;;;;;5110985;28;20511;-62
2022/03/25 10:14:28;;;;;;;37.75;25.38;;;15.90;73.90;;;;;;5121646;28;20700;-62
2022/03/25 10:16:55;;;;;;;36.40;24.05;;;16.10;71.10;;;;;;5116177;28;20023;-62
2022/03/25 10:19:24;;;;;;;48.63;26.60;;;16.10;69.30;;;;;;5110776;28;20020;-63
2022/03/25 10:21:59;;;;;;;37.15;23.98;;;16.00;70.30;;;;;;5109694;28;20069;-61
2022/03/25 10:24:43;;;;;;;39.38;26.17;;;16.20;71.20;;;;;;5110695;28;20024;-62
2022/03/25 10:27:09;;;;;;;37.08;25.02;;;16.40;70.60;;;;;;5110322;28;20098;-66
2022/03/25 10:29:35;;;;;;;40.22;25.33;;;16.50;70.30;;;;;;5110464;28;20054;-63
2022/03/25 10:32:14;;;;;;;38.67;25.15;;;16.70;69.70;;;;;;5110821;28;20024;-61
2022/03/25 10:34:42;;;;;;;35.22;23.65;;;16.80;69.50;;;;;;5121713;28;20127;-63
2022/03/25 10:37:11;;;;;;;37.38;24.65;;;16.80;70.60;;;;;;5123047;28;20031;-59
2022/03/25 10:39:38;;;;;;;41.55;26.88;;;16.90;68.90;;;;;;5130991;27;20031;-55
2022/03/25 10:42:06;;;;;;;40.50;24.98;;;17.10;68.90;;;;;;5121360;27;20526;-58
2022/03/25 10:44:40;;;;;;;35.85;24.90;;;17.20;68.20;;;;;;5110109;28;20077;-59
2022/03/25 10:47:14;;;;;;;36.22;24.92;;;17.30;67.90;;;;;;5110618;28;20035;-55
2022/03/25 10:49:43;;;;;;;43.58;25.40;;;17.20;67.80;;;;;;5110258;28;20058;-59
2022/03/25 10:52:25;;;;;;;39.92;25.52;;;17.20;67.40;;;;;;5113335;28;20095;-55
2022/03/25 10:54:51;;;;;;;39.65;25.05;;;17.30;67.60;;;;;;5114139;28;20023;-56
2022/03/25 10:57:17;;;;;;;38.92;25.35;;;17.50;67.80;;;;;;5114322;28;20026;-52
2022/03/25 10:59:57;;;;;;;37.33;24.73;;;17.60;67.80;;;;;;5114487;28;20367;-59
2022/03/25 11:02:23;;;;;;;41.22;27.15;;;17.70;67.30;;;;;;5114169;28;20080;-58
2022/03/25 11:04:50;;;;;;;44.25;26.33;;;17.60;67.20;;;;;;5114089;28;20024;-64
2022/03/25 11:07:18;;;;;;;41.47;26.50;;;17.50;67.30;;;;;;5114422;28;20391;-56
2022/03/25 11:09:44;;;;;;;37.17;25.08;;;17.70;68.00;;;;;;5114162;28;20486;-55
2022/03/25 11:12:11;;;;;;;35.90;25.10;;;18.10;66.00;;;;;;5114352;28;20030;-56
2022/03/25 11:14:37;;;;;;;36.17;23.42;;;18.20;65.40;;;;;;5114267;28;20027;-56
2022/03/25 11:17:07;;;;;;;38.30;25.80;;;18.90;64.80;;;;;;5114340;28;20030;-54
2022/03/25 11:19:34;;;;;;;38.08;26.92;;;19.90;64.30;;;;;;5112388;28;20024;-54
2022/03/25 11:22:03;;;;;;;33.10;23.33;;;20.70;62.60;;;;;;5113636;28;20028;-57
2022/03/25 11:24:50;;;;;;;39.67;25.75;;;21.00;60.80;;;;;;5113712;28;20030;-53
2022/03/25 11:27:18;;;;;;;45.10;27.85;;;21.50;59.80;;;;;;5113843;28;20019;-57
2022/03/25 11:29:47;;;;;;;34.65;25.63;;;21.80;58.00;;;;;;5113521;28;20070;-56
2022/03/25 11:32:15;;;;;;;39.08;27.35;;;22.20;57.60;;;;;;5114588;28;20404;-59
2022/03/25 11:34:46;;;;;;;36.53;26.95;;;22.00;57.60;;;;;;5114206;28;20095;-63
2022/03/25 11:37:19;;;;;;;36.95;27.17;;;22.70;56.60;;;;;;5113792;28;20084;-64
2022/03/25 11:39:44;;;;;;;36.05;27.35;;;23.70;55.20;;;;;;5113018;28;20020;-63
2022/03/25 11:42:40;;;;;;;44.05;36.03;;;23.10;53.80;;;;;;5112409;28;20028;-64
2022/03/25 11:45:21;;;;;;;46.85;31.63;;;23.50;54.10;;;;;;5098299;28;20035;-61
2022/03/25 11:48:10;;;;;;;36.63;26.98;;;23.10;53.30;;;;;;5113732;28;20024;-61
2022/03/25 11:50:40;;;;;;;35.42;27.48;;;22.90;53.10;;;;;;5106718;28;20023;-60
2022/03/25 11:53:11;;;;;;;44.33;27.40;;;23.70;53.30;;;;;;5112979;28;20505;-60
2022/03/25 11:55:53;;;;;;;38.50;27.95;;;24.40;51.40;;;;;;5113188;28;20031;-61
2022/03/25 11:58:19;;;;;;;36.10;28.02;;;24.80;51.40;;;;;;5111809;28;20023;-63
2022/03/25 12:00:48;;;;;;;36.45;28.73;;;25.00;50.20;;;;;;5112999;28;20028;-60
2022/03/25 12:03:16;;;;;;;36.60;26.80;;;25.20;50.70;;;;;;5112792;28;20519;-61
2022/03/25 12:06:02;;;;;;;34.13;26.38;;;25.40;49.70;;;;;;5113004;28;20111;-61
2022/03/25 12:08:29;;;;;;;54.45;46.20;;;25.70;49.00;;;;;;5115434;27;20475;-65
2022/03/25 12:10:56;;;;;;;33.07;25.57;;;25.50;48.30;;;;;;5133295;27;20023;-64
2022/03/25 12:13:23;;;;;;;39.40;27.00;;;24.10;48.70;;;;;;5133163;27;20356;-63
2022/03/25 12:15:52;;;;;;;31.23;25.85;;;23.50;49.60;;;;;;5132964;27;20443;-64
2022/03/25 12:18:40;;;;;;;31.58;23.88;;;22.40;50.60;;;;;;5133362;27;20463;-63
2022/03/25 12:21:20;;;;;;;36.67;26.52;;;23.40;51.20;;;;;;5133040;27;20035;-60
2022/03/25 12:23:56;;;;;;;35.92;27.25;;;23.90;49.20;;;;;;5133154;27;20023;-65
2022/03/25 12:26:29;;;;;;;35.75;24.02;;;24.70;49.00;;;;;;5133040;27;20038;-63
2022/03/25 12:28:55;;;;;;;31.45;24.15;;;25.10;48.30;;;;;;5133111;27;20019;-65
2022/03/25 12:31:21;;;;;;;31.38;24.92;;;24.80;47.60;;;;;;5120497;27;20015;-65
2022/03/25 12:33:57;;;;;;;30.90;24.55;;;25.10;46.90;;;;;;5111924;28;20019;-64
2022/03/25 12:36:24;;;;;;;32.13;24.92;;;24.10;47.50;;;;;;5112359;28;20483;-63
2022/03/25 12:38:56;;;;;;;31.48;24.23;;;24.70;46.90;;;;;;5112369;28;20034;-63
2022/03/25 12:41:29;;;;;;;31.70;23.15;;;24.60;46.40;;;;;;5112362;28;20098;-64